Tinsley, Kentucky
Current Conditions -  °F | °C
As of 1:55 PM on Thursday 23 Oct 2014 (Local Time) from K1A6 Reporting Station
Clear Clear  
Wind Chill: 59°   Ceiling: Unl
Heat Index: 59°   Visibility: 10mi
Dew Point: 40°   Wind: 5mph
Humidity: 50%   Direction: 20°NNE
Pressure: 30.17"   Gusts: NA
Location:  36.7417°N, 83.6911°W
Report Text: K1A6 231755Z AUTO 02004KT 10SM CLR 15/05 A3017 RMK AO2 T01520047 10152 20083
Loading
Personal Weather Stations






























Interactive Weather Map
Tropical Storm Tracking
New forecast layout! Learn more

10-Day Weather Forecast

Advertisements
Track Severe Weather on mobile